Time;durP1;ratioP1;P1;durP2;ratioP2;P2;SDS_P1;SDS_P2;PMS_P1;PMS_P2;Temp;Humidity;BMP_temperature;BMP_pressure;BME280_temperature;BME280_humidity;BME280_pressure;Samples;Min_cycle;Max_cycle;Signal;HPM_P1;HPM_P2
2021/09/08 00:00:16;;;;;;;20.23;14.40;;;;;;;12.33;100.00;96210.53;1038754;28;20541;-66
2021/09/08 00:00:47;;;;;;;18.52;13.55;;;;;;;12.34;100.00;96214.75;1028337;28;20022;-65
2021/09/08 00:01:17;;;;;;;17.73;13.77;;;;;;;12.31;100.00;96206.56;1022388;28;20023;-64
2021/09/08 00:01:48;;;;;;;17.65;14.45;;;;;;;12.27;100.00;96207.13;1026729;28;20091;-65
2021/09/08 00:02:18;;;;;;;17.90;13.65;;;;;;;12.27;100.00;96206.31;1019088;29;20022;-66
2021/09/08 00:02:49;;;;;;;16.80;13.40;;;;;;;12.28;100.00;96207.91;1022811;28;20509;-66
2021/09/08 00:03:19;;;;;;;19.55;14.43;;;;;;;12.20;100.00;96205.75;1022780;28;20493;-65
2021/09/08 00:03:49;;;;;;;18.23;13.73;;;;;;;12.14;100.00;96197.09;1027089;28;20015;-65
2021/09/08 00:04:20;;;;;;;19.67;13.73;;;;;;;12.22;100.00;96204.47;1026588;28;20030;-66
2021/09/08 00:04:50;;;;;;;18.02;14.63;;;;;;;12.22;100.00;96207.09;1025284;28;20045;-65
2021/09/08 00:05:21;;;;;;;19.48;14.25;;;;;;;12.21;100.00;96205.53;1026799;28;20033;-65
2021/09/08 00:05:51;;;;;;;18.05;13.27;;;;;;;12.15;100.00;96200.50;1026765;28;20061;-64
2021/09/08 00:06:22;;;;;;;18.73;13.75;;;;;;;12.19;100.00;96204.97;1032409;28;20035;-65
2021/09/08 00:06:52;;;;;;;18.90;13.90;;;;;;;12.20;100.00;96205.75;1026721;28;20022;-65
2021/09/08 00:07:23;;;;;;;17.55;13.35;;;;;;;12.19;100.00;96210.25;1036589;28;20022;-65
2021/09/08 00:07:53;;;;;;;20.58;13.13;;;;;;;12.18;100.00;96205.25;1034792;28;20025;-65
2021/09/08 00:08:24;;;;;;;21.35;12.85;;;;;;;12.17;100.00;96206.28;1029979;28;20061;-66
2021/09/08 00:08:54;;;;;;;20.23;13.52;;;;;;;12.09;100.00;96196.28;1034821;28;20021;-65
2021/09/08 00:09:24;;;;;;;18.17;13.65;;;;;;;12.09;100.00;96194.44;1030766;28;20026;-63
2021/09/08 00:09:55;;;;;;;17.02;13.40;;;;;;;12.14;100.00;96206.81;1033447;28;20085;-65
2021/09/08 00:10:28;;;;;;;16.52;13.20;;;;;;;12.14;100.00;96206.81;1026769;28;20023;-66
2021/09/08 00:10:58;;;;;;;17.42;14.05;;;;;;;12.12;100.00;96204.44;1027021;28;20027;-66
2021/09/08 00:11:29;;;;;;;18.70;13.38;;;;;;;12.10;100.00;96198.66;1030310;28;20844;-65
2021/09/08 00:11:59;;;;;;;18.02;13.60;;;;;;;12.09;100.00;96196.28;1026571;28;20026;-64
2021/09/08 00:12:30;;;;;;;18.33;13.82;;;;;;;12.09;100.00;96194.44;1030736;28;20034;-65
2021/09/08 00:13:00;;;;;;;15.73;12.95;;;;;;;12.07;100.00;96201.78;1034643;28;20057;-64
2021/09/08 00:13:33;;;;;;;20.08;13.15;;;;;;;12.05;100.00;96198.66;1034253;28;20022;-64
2021/09/08 00:14:03;;;;;;;17.02;13.57;;;;;;;12.05;100.00;96197.88;1042908;28;20029;-65
2021/09/08 00:14:34;;;;;;;16.30;13.55;;;;;;;12.01;100.00;96198.38;1042914;28;20666;-66
2021/09/08 00:15:07;;;;;;;19.48;13.70;;;;;;;11.94;100.00;96192.59;1037399;28;20155;-65
2021/09/08 00:15:38;;;;;;;19.40;13.77;;;;;;;11.90;100.00;96183.59;1030140;28;20565;-65
2021/09/08 00:16:08;;;;;;;22.88;14.40;;;;;;;11.93;100.00;96190.97;1027219;28;20376;-66
2021/09/08 00:16:39;;;;;;;16.90;13.52;;;;;;;11.91;100.00;96192.31;1026630;28;20026;-69
2021/09/08 00:17:09;;;;;;;20.55;14.20;;;;;;;11.89;100.00;96189.13;1031152;28;20010;-66
2021/09/08 00:17:40;;;;;;;17.67;13.80;;;;;;;11.88;100.00;96193.63;1034796;28;20572;-64
2021/09/08 00:18:10;;;;;;;19.38;13.98;;;;;;;11.84;100.00;96186.47;1034766;28;20034;-64
2021/09/08 00:18:41;;;;;;;18.90;14.05;;;;;;;11.84;100.00;96187.31;1038575;28;20020;-65
2021/09/08 00:19:11;;;;;;;18.08;13.75;;;;;;;11.84;100.00;96192.56;1038844;28;20020;-64
2021/09/08 00:19:42;;;;;;;17.40;14.25;;;;;;;11.80;100.00;96188.81;1038997;28;20190;-65
2021/09/08 00:20:15;;;;;;;19.15;13.90;;;;;;;11.79;100.00;96185.41;1030165;28;20026;-64
2021/09/08 00:20:45;;;;;;;17.80;13.57;;;;;;;11.76;100.00;96180.66;1030616;28;20021;-65
2021/09/08 00:21:18;;;;;;;16.75;12.65;;;;;;;11.77;100.00;96187.50;1025950;28;20776;-64
2021/09/08 00:21:49;;;;;;;18.88;13.40;;;;;;;11.71;100.00;96182.50;1027921;28;20274;-65
2021/09/08 00:22:19;;;;;;;21.23;14.10;;;;;;;11.77;100.00;96181.47;1030535;28;20037;-65
2021/09/08 00:22:50;;;;;;;16.23;13.10;;;;;;;11.72;100.00;96173.56;1030775;28;20026;-65
2021/09/08 00:23:20;;;;;;;17.35;13.15;;;;;;;11.76;100.00;96185.13;1026688;28;20030;-64
2021/09/08 00:23:51;;;;;;;18.35;13.50;;;;;;;11.72;100.00;96182.22;1030722;28;20037;-64
2021/09/08 00:24:21;;;;;;;18.70;13.35;;;;;;;11.75;100.00;96183.56;1034629;28;20029;-65
2021/09/08 00:24:52;;;;;;;17.02;13.30;;;;;;;11.77;100.00;96184.88;1034636;28;20476;-66
2021/09/08 00:25:22;;;;;;;19.00;13.75;;;;;;;11.77;100.00;96186.72;1034341;28;20382;-65
2021/09/08 00:25:53;;;;;;;16.85;13.82;;;;;;;11.74;100.00;96182.78;1030846;28;20061;-65
2021/09/08 00:26:24;;;;;;;15.23;12.55;;;;;;;11.76;100.00;96185.13;1034691;28;20494;-65
2021/09/08 00:26:54;;;;;;;18.27;13.60;;;;;;;11.75;100.00;96188.81;1030175;28;20499;-66
2021/09/08 00:27:25;;;;;;;16.50;13.00;;;;;;;11.79;100.00;96176.72;1030792;28;20273;-64
2021/09/08 00:27:55;;;;;;;16.27;12.63;;;;;;;11.77;100.00;96178.84;1030631;28;20459;-67
2021/09/08 00:28:26;;;;;;;16.95;13.43;;;;;;;11.76;100.00;96180.66;1025789;28;20571;-65
2021/09/08 00:28:56;;;;;;;18.25;14.60;;;;;;;11.69;100.00;96169.59;1030664;28;20088;-66
2021/09/08 00:29:26;;;;;;;17.98;13.68;;;;;;;11.67;100.00;96173.53;1026887;28;20090;-66
2021/09/08 00:29:57;;;;;;;17.38;13.55;;;;;;;11.73;100.00;96185.63;1022689;28;20070;-65
2021/09/08 00:30:27;;;;;;;19.52;12.90;;;;;;;11.76;100.00;96175.41;1026402;28;20055;-66
2021/09/08 00:30:58;;;;;;;17.50;13.18;;;;;;;11.67;100.00;96171.72;1026139;28;20030;-65
2021/09/08 00:31:28;;;;;;;16.92;13.60;;;;;;;11.74;100.00;96176.72;1022449;28;20026;-65
2021/09/08 00:31:59;;;;;;;17.50;13.50;;;;;;;11.75;100.00;96181.72;1026318;28;20085;-65
2021/09/08 00:32:30;;;;;;;16.88;12.25;;;;;;;11.76;100.00;96177.25;1026681;28;20022;-65
2021/09/08 00:33:00;;;;;;;17.70;13.15;;;;;;;11.76;100.00;96179.88;1030877;28;20778;-65
2021/09/08 00:33:31;;;;;;;19.27;13.90;;;;;;;11.76;100.00;96183.28;1034420;28;20033;-64
2021/09/08 00:34:01;;;;;;;19.25;12.93;;;;;;;11.76;100.00;96169.34;1030506;28;20030;-64
2021/09/08 00:34:32;;;;;;;18.17;13.52;;;;;;;11.77;100.00;96170.94;1030501;28;20030;-65
2021/09/08 00:35:03;;;;;;;17.55;12.23;;;;;;;11.77;100.00;96176.22;1030724;28;20026;-67
2021/09/08 00:35:34;;;;;;;18.23;12.82;;;;;;;11.77;100.00;96174.38;1030171;28;20022;-66
2021/09/08 00:36:04;;;;;;;16.25;12.70;;;;;;;11.79;100.00;96174.09;1038858;28;20347;-66
2021/09/08 00:36:35;;;;;;;16.08;13.07;;;;;;;11.78;100.00;96175.16;1038897;28;20029;-65
2021/09/08 00:37:05;;;;;;;18.58;13.13;;;;;;;11.79;100.00;96168.84;1038527;28;20021;-66
2021/09/08 00:37:37;;;;;;;18.33;13.15;;;;;;;11.80;100.00;96167.78;1034481;28;20030;-65
2021/09/08 00:38:11;;;;;;;15.93;12.70;;;;;;;11.80;100.00;96170.41;1034696;28;20069;-65
2021/09/08 00:38:42;;;;;;;17.30;12.95;;;;;;;11.83;100.00;96169.91;1031250;28;20344;-64
2021/09/08 00:39:12;;;;;;;15.90;13.05;;;;;;;11.77;100.00;96161.22;1030942;28;20280;-66
2021/09/08 00:39:44;;;;;;;16.13;12.48;;;;;;;11.86;100.00;96166.78;1030004;28;20033;-66
2021/09/08 00:40:14;;;;;;;19.73;13.10;;;;;;;11.85;100.00;96167.84;1033269;28;20018;-62
2021/09/08 00:40:44;;;;;;;16.52;12.43;;;;;;;11.89;100.00;96168.88;1026025;28;20290;-64
2021/09/08 00:41:15;;;;;;;18.35;12.38;;;;;;;11.90;100.00;96167.84;1022258;28;20034;-65
2021/09/08 00:41:45;;;;;;;17.88;12.88;;;;;;;11.96;100.00;96168.66;1030799;28;20128;-66
2021/09/08 00:42:17;;;;;;;15.48;12.75;;;;;;;11.90;100.00;96153.91;1030003;28;20033;-65
2021/09/08 00:42:47;;;;;;;21.20;12.88;;;;;;;11.96;100.00;96153.66;1034604;28;20141;-66
2021/09/08 00:43:18;;;;;;;17.00;12.82;;;;;;;12.03;100.00;96163.91;1034732;28;20319;-66
2021/09/08 00:43:48;;;;;;;17.02;13.18;;;;;;;12.06;100.00;96157.34;1034231;28;20030;-66
2021/09/08 00:44:19;;;;;;;17.75;12.35;;;;;;;12.06;100.00;96152.09;1026462;28;20048;-66
2021/09/08 00:44:49;;;;;;;18.77;13.65;;;;;;;12.05;100.00;96150.53;1030743;28;20029;-66
2021/09/08 00:45:19;;;;;;;20.42;13.27;;;;;;;12.09;100.00;96154.19;1022774;29;20031;-65
2021/09/08 00:45:54;;;;;;;17.13;12.60;;;;;;;12.13;100.00;96155.25;1024521;28;20456;-65
2021/09/08 00:46:24;;;;;;;17.30;12.30;;;;;;;12.13;100.00;96152.63;1028967;28;20031;-66
2021/09/08 00:46:56;;;;;;;17.88;12.93;;;;;;;12.10;100.00;96147.88;1034224;28;20268;-66
2021/09/08 00:47:26;;;;;;;16.80;12.65;;;;;;;12.12;100.00;96158.94;1023773;28;20031;-65
2021/09/08 00:47:57;;;;;;;17.77;12.52;;;;;;;12.12;100.00;96151.06;1027300;28;20285;-65
2021/09/08 00:48:27;;;;;;;16.85;12.43;;;;;;;12.15;100.00;96155.78;1027177;28;20031;-65
2021/09/08 00:48:58;;;;;;;15.70;11.95;;;;;;;12.16;100.00;96152.09;1030496;28;20092;-66
2021/09/08 00:49:28;;;;;;;16.02;12.63;;;;;;;12.15;100.00;96153.16;1027112;28;20045;-65
2021/09/08 00:49:58;;;;;;;17.25;12.88;;;;;;;12.13;100.00;96147.34;1030441;28;20515;-66
2021/09/08 00:50:29;;;;;;;16.40;13.23;;;;;;;12.09;100.00;96146.31;1038648;28;20395;-66
2021/09/08 00:50:59;;;;;;;17.58;13.00;;;;;;;12.15;100.00;96151.31;1032743;28;20053;-65
2021/09/08 00:51:31;;;;;;;17.92;12.75;;;;;;;12.16;100.00;96144.22;1033976;28;20096;-66
2021/09/08 00:52:04;;;;;;;18.40;13.10;;;;;;;12.22;100.00;96145.78;1028022;28;20129;-65
2021/09/08 00:52:36;;;;;;;17.48;13.18;;;;;;;12.23;100.00;96147.38;1030188;28;20717;-66
2021/09/08 00:53:07;;;;;;;15.27;12.52;;;;;;;12.17;100.00;96132.63;1026772;28;20269;-66
2021/09/08 00:53:37;;;;;;;17.33;13.35;;;;;;;12.19;100.00;96141.06;1030816;28;20766;-66
2021/09/08 00:54:11;;;;;;;17.65;12.32;;;;;;;12.23;100.00;96142.09;1027165;28;20477;-66
2021/09/08 00:54:48;;;;;;;17.02;12.88;;;;;;;12.27;100.00;96143.16;1030918;28;20053;-66
2021/09/08 00:55:20;;;;;;;17.00;12.32;;;;;;;12.23;100.00;96142.88;1030843;28;20659;-65
2021/09/08 00:55:51;;;;;;;17.27;13.10;;;;;;;12.22;100.00;96141.31;1032456;28;20265;-62
2021/09/08 00:56:22;;;;;;;14.70;11.50;;;;;;;12.17;100.00;96141.34;1033381;28;20280;-65
2021/09/08 00:56:53;;;;;;;18.80;13.20;;;;;;;12.19;100.00;96141.06;1031095;28;20077;-62
2021/09/08 00:57:24;;;;;;;16.92;13.50;;;;;;;12.17;100.00;96137.88;1028853;28;20307;-65
2021/09/08 00:57:57;;;;;;;16.55;12.60;;;;;;;12.15;100.00;96140.78;1026457;28;20684;-66
2021/09/08 00:58:28;;;;;;;17.15;13.48;;;;;;;12.10;100.00;96132.09;1030571;28;20035;-66
2021/09/08 00:58:58;;;;;;;15.45;13.27;;;;;;;12.20;100.00;96135.53;1030879;28;20265;-65
2021/09/08 00:59:29;;;;;;;17.10;12.35;;;;;;;12.20;100.00;96140.00;1028562;28;20034;-66
2021/09/08 01:00:04;;;;;;;15.82;12.48;;;;;;;12.22;100.00;96137.91;1030770;28;20080;-65
2021/09/08 01:00:35;;;;;;;21.42;12.38;;;;;;;12.18;100.00;96135.00;1027355;28;20424;-64
2021/09/08 01:01:05;;;;;;;16.27;12.45;;;;;;;12.22;100.00;96137.91;1034948;28;20265;-65
2021/09/08 01:01:35;;;;;;;16.08;12.18;;;;;;;12.22;100.00;96136.06;1030628;28;20030;-65
2021/09/08 01:02:06;;;;;;;14.23;11.18;;;;;;;12.23;100.00;96137.63;1034503;28;20045;-65
2021/09/08 01:02:40;;;;;;;13.88;11.95;;;;;;;12.25;100.00;96135.53;1034732;28;20811;-65
2021/09/08 01:03:10;;;;;;;15.32;12.07;;;;;;;12.22;100.00;96137.91;1034547;28;20036;-65
2021/09/08 01:03:41;;;;;;;16.10;12.13;;;;;;;12.19;100.00;96126.06;1030303;28;20258;-65
2021/09/08 01:04:13;;;;;;;17.17;13.25;;;;;;;12.20;100.00;96126.84;1039024;28;20455;-63
2021/09/08 01:04:45;;;;;;;15.05;12.60;;;;;;;12.22;100.00;96125.53;1039557;28;20025;-66
2021/09/08 01:05:15;;;;;;;18.00;11.68;;;;;;;12.22;100.00;96130.00;1030238;28;21084;-66
2021/09/08 01:05:46;;;;;;;17.27;12.90;;;;;;;12.26;100.00;96131.06;1022874;29;20281;-66
2021/09/08 01:06:17;;;;;;;17.13;12.82;;;;;;;12.21;100.00;96125.81;1028163;28;20058;-66
2021/09/08 01:06:47;;;;;;;15.13;11.88;;;;;;;12.23;100.00;96134.22;1023624;28;20700;-66
2021/09/08 01:07:18;;;;;;;15.07;11.98;;;;;;;12.25;100.00;96132.13;1023648;28;20412;-66
2021/09/08 01:07:48;;;;;;;16.98;12.52;;;;;;;12.27;100.00;96136.06;1031491;28;20022;-66
2021/09/08 01:08:18;;;;;;;14.40;11.90;;;;;;;12.28;100.00;96134.22;1039271;28;20029;-66
2021/09/08 01:08:49;;;;;;;20.92;12.38;;;;;;;12.20;100.00;96122.38;1040200;28;20032;-66
2021/09/08 01:09:19;;;;;;;16.40;12.25;;;;;;;12.29;100.00;96129.75;1034973;28;20022;-65
2021/09/08 01:09:50;;;;;;;17.55;13.02;;;;;;;12.29;100.00;96138.44;1030791;28;20022;-65
2021/09/08 01:10:23;;;;;;;17.27;12.57;;;;;;;12.20;100.00;96124.22;1022645;29;20465;-64
2021/09/08 01:10:53;;;;;;;17.92;13.43;;;;;;;12.21;100.00;96123.97;1019011;29;20027;-65
2021/09/08 01:11:24;;;;;;;15.00;12.75;;;;;;;12.24;100.00;96133.97;1018271;29;20275;-66
2021/09/08 01:11:54;;;;;;;17.73;12.43;;;;;;;12.22;100.00;96132.63;1019856;28;20075;-65
2021/09/08 01:12:25;;;;;;;14.05;11.48;;;;;;;12.22;100.00;96135.28;1026495;28;20026;-65
2021/09/08 01:12:55;;;;;;;16.48;12.48;;;;;;;12.15;100.00;96129.47;1027075;28;20027;-65
2021/09/08 01:13:26;;;;;;;14.90;12.30;;;;;;;12.17;100.00;96138.69;1026996;28;20481;-65
2021/09/08 01:13:56;;;;;;;17.88;11.63;;;;;;;12.10;100.00;96127.63;1028185;28;20093;-66
2021/09/08 01:14:27;;;;;;;15.48;12.65;;;;;;;12.17;100.00;96135.25;1023268;29;20039;-66
2021/09/08 01:14:57;;;;;;;18.42;13.57;;;;;;;12.16;100.00;96138.94;1022706;29;20031;-66
2021/09/08 01:15:28;;;;;;;15.88;12.38;;;;;;;12.13;100.00;96131.56;1022602;28;20046;-65
2021/09/08 01:16:05;;;;;;;18.85;12.40;;;;;;;12.10;100.00;96126.84;1026916;28;20035;-66
2021/09/08 01:16:35;;;;;;;15.25;12.63;;;;;;;12.13;100.00;96135.00;1026667;28;20026;-66
2021/09/08 01:17:06;;;;;;;16.42;12.48;;;;;;;12.14;100.00;96138.41;1027088;28;20310;-66
2021/09/08 01:17:36;;;;;;;15.65;12.15;;;;;;;12.11;100.00;96134.47;1027159;28;20027;-66
2021/09/08 01:18:06;;;;;;;14.27;12.48;;;;;;;12.11;100.00;96139.75;1030751;28;20035;-66
2021/09/08 01:18:37;;;;;;;18.25;13.25;;;;;;;12.07;100.00;96130.00;1030805;28;20034;-65
2021/09/08 01:19:07;;;;;;;16.02;12.82;;;;;;;12.10;100.00;96135.50;1026567;28;20037;-66
2021/09/08 01:19:38;;;;;;;17.30;13.52;;;;;;;11.97;100.00;96117.63;1026784;28;20023;-65
2021/09/08 01:20:09;;;;;;;16.73;12.95;;;;;;;12.10;100.00;96138.16;1026764;28;20027;-66
2021/09/08 01:20:39;;;;;;;17.88;12.57;;;;;;;12.08;100.00;96135.00;1030685;28;20026;-65
2021/09/08 01:21:10;;;;;;;25.30;14.35;;;;;;;12.13;100.00;96140.25;1030298;28;20257;-62
2021/09/08 01:21:40;;;;;;;16.35;13.07;;;;;;;12.11;100.00;96139.75;1028772;28;20062;-65
2021/09/08 01:22:10;;;;;;;15.18;11.93;;;;;;;12.07;100.00;96122.88;1022800;28;20047;-65
2021/09/08 01:22:48;;;;;;;15.77;12.43;;;;;;;12.10;100.00;96137.34;1030378;28;20045;-68
2021/09/08 01:23:18;;;;;;;17.15;12.93;;;;;;;12.08;100.00;96128.97;1026459;28;20044;-65
2021/09/08 01:23:49;;;;;;;16.73;12.50;;;;;;;12.04;100.00;96136.59;1028769;28;20362;-65
2021/09/08 01:24:19;;;;;;;17.42;12.63;;;;;;;12.02;100.00;96130.78;1031475;28;20026;-65
2021/09/08 01:24:52;;;;;;;17.20;12.68;;;;;;;12.02;100.00;96136.03;1026978;28;20051;-66
2021/09/08 01:25:24;;;;;;;16.83;12.38;;;;;;;12.01;100.00;96134.47;1039072;28;20430;-65
2021/09/08 01:25:55;;;;;;;18.08;12.98;;;;;;;12.00;100.00;96136.31;1038115;28;20257;-65
2021/09/08 01:26:25;;;;;;;16.83;12.25;;;;;;;11.97;100.00;96139.47;1034844;28;20277;-65
2021/09/08 01:26:57;;;;;;;17.52;13.55;;;;;;;11.97;100.00;96133.41;1034735;28;20033;-65
2021/09/08 01:27:27;;;;;;;18.98;12.48;;;;;;;11.96;100.00;96132.59;1030627;28;20034;-65
2021/09/08 01:27:58;;;;;;;15.32;12.27;;;;;;;11.95;100.00;96135.50;1026963;28;20266;-66
2021/09/08 01:28:28;;;;;;;18.30;12.98;;;;;;;11.95;100.00;96140.78;1031039;28;20069;-66
2021/09/08 01:28:59;;;;;;;16.00;12.75;;;;;;;11.94;100.00;96134.72;1034756;28;20117;-66
2021/09/08 01:29:29;;;;;;;19.40;13.43;;;;;;;11.92;100.00;96136.81;1038548;28;20084;-66
2021/09/08 01:30:00;;;;;;;16.00;12.95;;;;;;;11.90;100.00;96133.66;1034884;28;20026;-66
2021/09/08 01:30:30;;;;;;;15.60;12.77;;;;;;;11.91;100.00;96140.50;1034809;28;20060;-66
2021/09/08 01:31:01;;;;;;;17.77;13.15;;;;;;;11.88;100.00;96129.72;1036164;28;20034;-65
2021/09/08 01:31:31;;;;;;;17.08;13.20;;;;;;;11.89;100.00;96142.59;1030073;28;20034;-65
2021/09/08 01:32:02;;;;;;;17.08;12.88;;;;;;;11.90;100.00;96138.91;1034935;28;20026;-65
2021/09/08 01:32:33;;;;;;;19.08;12.77;;;;;;;11.88;100.00;96135.75;1034269;28;20029;-65
2021/09/08 01:33:15;;;;;;;18.15;13.70;;;;;;;11.87;100.00;96144.72;1035059;28;20018;-66
2021/09/08 01:33:46;;;;;;;15.85;12.27;;;;;;;11.88;100.00;96129.72;1030791;28;20038;-65
2021/09/08 01:34:16;;;;;;;15.68;13.27;;;;;;;11.87;100.00;96136.81;1031909;28;20679;-66
2021/09/08 01:34:51;;;;;;;17.45;13.02;;;;;;;11.87;100.00;96139.44;1030708;28;20034;-66
2021/09/08 01:35:21;;;;;;;20.52;13.90;;;;;;;11.85;100.00;96136.28;1032125;28;20027;-66
2021/09/08 01:35:52;;;;;;;18.63;13.10;;;;;;;11.83;100.00;96133.09;1034735;28;20276;-66
2021/09/08 01:36:22;;;;;;;19.25;12.75;;;;;;;11.78;100.00;96122.56;1035420;28;20037;-67
2021/09/08 01:36:53;;;;;;;18.55;12.73;;;;;;;11.83;100.00;96138.34;1030549;28;20061;-66
2021/09/08 01:37:23;;;;;;;17.52;13.32;;;;;;;11.83;100.00;96135.72;1026784;28;20481;-65
2021/09/08 01:37:54;;;;;;;17.73;13.23;;;;;;;11.83;100.00;96133.09;1030178;28;20034;-66
2021/09/08 01:38:24;;;;;;;17.02;12.82;;;;;;;11.83;100.00;96133.09;1030792;28;20104;-65
2021/09/08 01:38:56;;;;;;;16.27;12.52;;;;;;;11.83;100.00;96132.28;1034733;28;20452;-65
2021/09/08 01:39:26;;;;;;;17.27;13.00;;;;;;;11.78;100.00;96133.88;1034579;28;20722;-65
2021/09/08 01:39:57;;;;;;;17.13;12.85;;;;;;;11.78;100.00;96133.09;1030741;28;20346;-65
2021/09/08 01:40:27;;;;;;;15.43;12.88;;;;;;;11.77;100.00;96136.78;1030647;28;20038;-66
2021/09/08 01:40:57;;;;;;;18.05;12.88;;;;;;;11.74;100.00;96129.41;1030812;28;20078;-66
2021/09/08 01:41:28;;;;;;;19.50;13.30;;;;;;;11.78;100.00;96130.47;1033186;28;20021;-65
2021/09/08 01:41:58;;;;;;;18.85;13.13;;;;;;;11.80;100.00;96128.34;1034781;28;20080;-65
2021/09/08 01:42:29;;;;;;;18.73;13.35;;;;;;;11.81;100.00;96132.56;1034920;28;20030;-65
2021/09/08 01:42:59;;;;;;;16.15;12.98;;;;;;;11.79;100.00;96127.56;1033603;28;20084;-65
2021/09/08 01:43:31;;;;;;;17.20;12.98;;;;;;;11.82;100.00;96131.50;1032771;28;20029;-65
2021/09/08 01:44:01;;;;;;;15.82;12.82;;;;;;;11.82;100.00;96120.22;1035354;28;20458;-64
2021/09/08 01:44:32;;;;;;;18.60;13.02;;;;;;;11.86;100.00;96124.72;1024735;28;20373;-64
2021/09/08 01:45:03;;;;;;;17.85;13.45;;;;;;;11.86;100.00;96132.59;1022416;29;20031;-63
2021/09/08 01:45:33;;;;;;;18.50;13.43;;;;;;;11.87;100.00;96128.13;1025594;28;20034;-65
2021/09/08 01:46:04;;;;;;;16.33;12.63;;;;;;;11.86;100.00;96129.97;1034868;28;20026;-66
2021/09/08 01:46:34;;;;;;;17.30;12.80;;;;;;;11.86;100.00;96127.34;1038340;28;20060;-66
2021/09/08 01:47:05;;;;;;;16.80;13.00;;;;;;;11.85;100.00;96119.72;1042501;28;20544;-65
2021/09/08 01:47:35;;;;;;;18.80;13.18;;;;;;;11.83;100.00;96129.66;1042683;28;20486;-66
2021/09/08 01:48:06;;;;;;;18.13;13.20;;;;;;;11.80;100.00;96118.63;1038252;28;20168;-65
2021/09/08 01:48:36;;;;;;;19.80;13.75;;;;;;;11.83;100.00;96125.19;1030418;28;20026;-65
2021/09/08 01:49:06;;;;;;;17.60;12.60;;;;;;;11.83;100.00;96125.19;1026434;28;20432;-65
2021/09/08 01:49:37;;;;;;;17.15;12.90;;;;;;;11.79;100.00;96116.25;1021927;28;20042;-65
2021/09/08 01:50:08;;;;;;;16.58;13.13;;;;;;;11.82;100.00;96128.09;1026487;28;20042;-66
2021/09/08 01:50:38;;;;;;;18.33;12.93;;;;;;;11.81;100.00;96129.94;1026326;28;20030;-65
2021/09/08 01:51:09;;;;;;;17.05;13.52;;;;;;;11.63;100.00;96109.38;1022339;28;20270;-66
2021/09/08 01:51:39;;;;;;;16.75;13.18;;;;;;;11.75;100.00;96123.09;1021000;28;20023;-65
2021/09/08 01:52:10;;;;;;;17.15;13.45;;;;;;;11.77;100.00;96131.50;1026389;28;20018;-66
2021/09/08 01:52:40;;;;;;;18.70;14.27;;;;;;;11.75;100.00;96120.47;1026648;28;20085;-65
2021/09/08 01:53:12;;;;;;;20.73;12.55;;;;;;;11.72;100.00;96129.66;1024426;28;20035;-63
2021/09/08 01:53:43;;;;;;;19.02;13.95;;;;;;;11.75;100.00;96125.72;1026823;28;20029;-65
2021/09/08 01:54:13;;;;;;;17.65;13.75;;;;;;;11.75;100.00;96128.34;1034619;28;20786;-64
2021/09/08 01:54:44;;;;;;;20.52;13.40;;;;;;;11.75;100.00;96130.97;1033069;28;20111;-65
2021/09/08 01:55:14;;;;;;;18.70;13.93;;;;;;;11.63;100.00;96112.00;1030363;28;20389;-65
2021/09/08 01:55:46;;;;;;;18.55;13.48;;;;;;;11.69;100.00;96117.03;1026389;28;20022;-65
2021/09/08 01:56:16;;;;;;;18.13;13.95;;;;;;;11.71;100.00;96125.44;1026409;28;20019;-65
2021/09/08 01:56:47;;;;;;;17.35;14.00;;;;;;;11.71;100.00;96124.66;1021826;28;21033;-65
2021/09/08 01:57:17;;;;;;;20.55;13.40;;;;;;;11.66;100.00;96130.69;1026664;28;20405;-65
2021/09/08 01:57:48;;;;;;;18.90;14.73;;;;;;;11.60;100.00;96117.78;1028878;28;20052;-65
2021/09/08 01:58:18;;;;;;;19.45;14.05;;;;;;;11.61;100.00;96120.16;1030251;28;20042;-68
2021/09/08 01:58:49;;;;;;;19.02;13.93;;;;;;;11.62;100.00;96126.22;1042750;28;20576;-66
2021/09/08 01:59:19;;;;;;;16.65;13.63;;;;;;;11.59;100.00;96131.97;1042490;28;20032;-66
2021/09/08 01:59:49;;;;;;;15.70;13.05;;;;;;;11.59;100.00;96126.72;1037079;28;20101;-65
2021/09/08 02:00:20;;;;;;;17.25;13.45;;;;;;;11.59;100.00;96126.72;1035641;28;20813;-65
2021/09/08 02:00:50;;;;;;;17.92;13.55;;;;;;;11.56;100.00;96126.19;1034477;28;20472;-63
2021/09/08 02:01:23;;;;;;;16.65;13.63;;;;;;;11.55;100.00;96126.47;1032420;28;20087;-65
2021/09/08 02:01:54;;;;;;;17.30;13.55;;;;;;;11.53;100.00;96125.91;1029582;28;20018;-65
2021/09/08 02:02:24;;;;;;;18.02;13.88;;;;;;;11.52;100.00;96130.38;1034510;28;20652;-65
2021/09/08 02:02:54;;;;;;;18.05;13.95;;;;;;;11.49;100.00;96123.00;1034491;28;20088;-66
2021/09/08 02:03:25;;;;;;;16.80;13.57;;;;;;;11.52;100.00;96130.38;1030392;28;20030;-66
2021/09/08 02:03:55;;;;;;;19.30;14.20;;;;;;;11.47;100.00;96114.63;1026451;28;20027;-65
2021/09/08 02:04:26;;;;;;;20.48;13.80;;;;;;;11.52;100.00;96133.00;1030408;28;20022;-65
2021/09/08 02:04:56;;;;;;;21.40;14.77;;;;;;;11.48;100.00;96123.28;1029713;28;20479;-65
2021/09/08 02:05:27;;;;;;;16.90;13.18;;;;;;;11.49;100.00;96130.13;1031088;28;20022;-66
2021/09/08 02:05:57;;;;;;;17.10;13.20;;;;;;;11.48;100.00;96128.53;1023047;28;20078;-65
2021/09/08 02:06:28;;;;;;;20.02;14.43;;;;;;;11.47;100.00;96124.34;1019201;29;20034;-65
2021/09/08 02:06:59;;;;;;;19.42;14.32;;;;;;;11.46;100.00;96128.78;1018826;28;20490;-65
2021/09/08 02:07:29;;;;;;;16.85;13.90;;;;;;;11.38;100.00;96118.78;1027396;28;20274;-65
2021/09/08 02:07:59;;;;;;;22.05;14.35;;;;;;;11.36;100.00;96122.72;1031572;28;20078;-64
2021/09/08 02:08:30;;;;;;;19.63;14.15;;;;;;;11.40;100.00;96124.59;1029070;28;20022;-65
2021/09/08 02:09:00;;;;;;;21.80;14.45;;;;;;;11.33;100.00;96116.13;1027387;28;20097;-66
2021/09/08 02:09:31;;;;;;;18.63;14.07;;;;;;;11.38;100.00;96126.66;1033925;28;20020;-64
2021/09/08 02:10:02;;;;;;;18.10;14.15;;;;;;;11.31;100.00;96120.88;1034883;28;20018;-63
2021/09/08 02:10:33;;;;;;;19.20;14.63;;;;;;;11.33;100.00;96129.25;1027121;28;20054;-65
2021/09/08 02:11:06;;;;;;;19.92;14.98;;;;;;;11.31;100.00;96128.75;1027377;28;20703;-66
2021/09/08 02:11:37;;;;;;;17.77;14.23;;;;;;;11.28;100.00;96126.63;1031775;28;20018;-65
2021/09/08 02:12:08;;;;;;;20.45;14.88;;;;;;;11.28;100.00;96132.66;1036973;28;20284;-65
2021/09/08 02:12:38;;;;;;;18.33;14.40;;;;;;;11.21;100.00;96118.97;1039079;28;20025;-66
2021/09/08 02:13:09;;;;;;;18.25;13.90;;;;;;;11.27;100.00;96135.56;1023302;29;20685;-66
2021/09/08 02:13:39;;;;;;;18.75;15.27;;;;;;;11.26;100.00;96123.47;1022920;29;20520;-66
2021/09/08 02:14:10;;;;;;;17.17;14.32;;;;;;;11.26;100.00;96126.09;1023195;29;20046;-65
2021/09/08 02:14:40;;;;;;;20.45;15.40;;;;;;;11.23;100.00;96123.97;1031489;28;20010;-66
2021/09/08 02:15:11;;;;;;;18.25;14.52;;;;;;;11.23;100.00;96130.03;1026874;28;20385;-62
2021/09/08 02:15:41;;;;;;;17.50;14.43;;;;;;;11.21;100.00;96120.81;1031312;28;20022;-65
2021/09/08 02:16:12;;;;;;;18.75;14.57;;;;;;;11.20;100.00;96134.97;1027297;28;20094;-64
2021/09/08 02:16:43;;;;;;;23.27;15.32;;;;;;;10.90;100.00;96083.94;1023209;28;20031;-66
2021/09/08 02:17:13;;;;;;;20.45;15.65;;;;;;;11.19;100.00;96125.53;1030298;28;20030;-65
2021/09/08 02:17:44;;;;;;;17.83;14.93;;;;;;;11.19;100.00;96122.91;1032913;28;20616;-65
2021/09/08 02:18:14;;;;;;;19.00;15.38;;;;;;;11.17;100.00;96125.00;1031760;28;20029;-65
2021/09/08 02:18:45;;;;;;;20.08;15.43;;;;;;;11.12;100.00;96114.47;1033311;28;20491;-65
2021/09/08 02:19:15;;;;;;;20.85;14.80;;;;;;;11.15;100.00;96122.63;1031139;28;20029;-65
2021/09/08 02:19:46;;;;;;;18.45;15.38;;;;;;;11.11;100.00;96115.53;1035314;28;20309;-65
2021/09/08 02:20:16;;;;;;;20.45;15.85;;;;;;;11.14;100.00;96130.78;1023090;28;20034;-65